Time;durP1;ratioP1;P1;durP2;ratioP2;P2;SDS_P1;SDS_P2;PMS_P1;PMS_P2;Temp;Humidity;BMP_temperature;BMP_pressure;BME280_temperature;BME280_humidity;BME280_pressure;Samples;Min_cycle;Max_cycle;Signal;HPM_P1;HPM_P2
2022/05/09 00:01:14;;;;;;;;;15.60;14.00;;;;;;;;5018443;28;8755;-65
2022/05/09 00:03:42;;;;;;;;;13.80;12.40;;;;;;;;5017726;28;8885;-65
2022/05/09 00:06:09;;;;;;;;;9.60;9.60;;;;;;;;5019156;28;8783;-65
2022/05/09 00:08:36;;;;;;;;;11.20;9.00;;;;;;;;5017548;28;8795;-65
2022/05/09 00:11:02;;;;;;;;;9.60;9.60;;;;;;;;4999418;28;8805;-65
2022/05/09 00:13:29;;;;;;;;;8.40;8.40;;;;;;;;4999263;28;8758;-65
2022/05/09 00:15:56;;;;;;;;;10.40;8.80;;;;;;;;5000422;28;8769;-66
2022/05/09 00:18:22;;;;;;;;;9.40;8.60;;;;;;;;5018841;28;8771;-65
2022/05/09 00:20:49;;;;;;;;;9.00;9.00;;;;;;;;5018727;28;8767;-66
2022/05/09 00:23:16;;;;;;;;;14.40;11.80;;;;;;;;5018418;28;8853;-65
2022/05/09 00:25:43;;;;;;;;;14.60;12.00;;;;;;;;5016902;28;8737;-65
2022/05/09 00:28:09;;;;;;;;;13.40;11.60;;;;;;;;5017953;28;8743;-66
2022/05/09 00:30:36;;;;;;;;;16.20;12.60;;;;;;;;5018160;28;8775;-65
2022/05/09 00:33:04;;;;;;;;;12.00;11.80;;;;;;;;5018306;28;8878;-66
2022/05/09 00:35:30;;;;;;;;;12.80;11.40;;;;;;;;5017791;28;8815;-65
2022/05/09 00:37:57;;;;;;;;;10.00;8.80;;;;;;;;5017913;28;8770;-66
2022/05/09 00:40:24;;;;;;;;;12.40;10.20;;;;;;;;5001719;28;8919;-65
2022/05/09 00:42:54;;;;;;;;;7.80;7.80;;;;;;;;5017470;28;8833;-66
2022/05/09 00:45:22;;;;;;;;;10.40;8.80;;;;;;;;5016725;28;8807;-64
2022/05/09 00:47:49;;;;;;;;;7.00;7.00;;;;;;;;5016084;28;8922;-66
2022/05/09 00:50:17;;;;;;;;;7.60;7.60;;;;;;;;5017209;28;8807;-66
2022/05/09 00:53:04;;;;;;;;;9.80;8.40;;;;;;;;4999817;28;8767;-66
2022/05/09 00:55:36;;;;;;;;;11.80;8.00;;;;;;;;5032256;28;8864;-66
2022/05/09 00:58:14;;;;;;;;;9.40;8.60;;;;;;;;5035893;28;9488;-66
2022/05/09 01:00:42;;;;;;;;;3.80;3.80;;;;;;;;5018701;28;8813;-67
2022/05/09 01:03:11;;;;;;;;;10.00;6.40;;;;;;;;5018983;28;8804;-67
2022/05/09 01:05:39;;;;;;;;;5.80;5.20;;;;;;;;5017909;28;8789;-66
2022/05/09 01:08:06;;;;;;;;;5.60;4.40;;;;;;;;5035965;28;9409;-67
2022/05/09 01:10:34;;;;;;;;;4.60;3.40;;;;;;;;5035236;28;8773;-66
2022/05/09 01:13:02;;;;;;;;;8.00;6.00;;;;;;;;5017385;28;8773;-67
2022/05/09 01:15:28;;;;;;;;;6.20;4.20;;;;;;;;5035358;28;8904;-67
2022/05/09 01:17:55;;;;;;;;;7.00;5.20;;;;;;;;5018445;28;8773;-66
2022/05/09 01:20:22;;;;;;;;;5.60;5.00;;;;;;;;5036669;28;8931;-66
2022/05/09 01:22:49;;;;;;;;;6.80;6.00;;;;;;;;5036841;28;8777;-66
2022/05/09 01:25:17;;;;;;;;;6.00;5.00;;;;;;;;5019231;28;8729;-66
2022/05/09 01:27:44;;;;;;;;;5.40;5.40;;;;;;;;5036692;28;8827;-67
2022/05/09 01:30:22;;;;;;;;;6.20;5.00;;;;;;;;5036644;28;8776;-67
2022/05/09 01:32:59;;;;;;;;;5.80;4.60;;;;;;;;5019069;28;8769;-66
2022/05/09 01:35:33;;;;;;;;;2.80;2.80;;;;;;;;5019112;28;8821;-67
2022/05/09 01:38:15;;;;;;;;;4.00;4.00;;;;;;;;5034418;28;8787;-67
2022/05/09 01:40:42;;;;;;;;;3.40;2.40;;;;;;;;5035784;28;8785;-66
2022/05/09 01:43:09;;;;;;;;;3.40;3.40;;;;;;;;5036874;28;8741;-67
2022/05/09 01:45:36;;;;;;;;;3.60;3.60;;;;;;;;5000254;28;8824;-66
2022/05/09 01:50:47;;;;;;;;;3.40;2.60;;;;;;;;5035454;28;8781;-63
2022/05/09 01:53:15;;;;;;;;;5.60;4.20;;;;;;;;5018526;28;8769;-67
2022/05/09 01:55:41;;;;;;;;;5.80;5.80;;;;;;;;5018320;28;8745;-62
2022/05/09 01:58:08;;;;;;;;;8.00;4.60;;;;;;;;5036280;28;8761;-62
2022/05/09 02:00:35;;;;;;;;;4.20;4.20;;;;;;;;5036004;28;8789;-63
2022/05/09 02:03:05;;;;;;;;;6.80;6.80;;;;;;;;5035870;28;9579;-62
2022/05/09 02:05:34;;;;;;;;;4.60;4.60;;;;;;;;5035573;28;8895;-63
2022/05/09 02:08:01;;;;;;;;;8.60;6.80;;;;;;;;5018369;28;9927;-62
2022/05/09 02:10:28;;;;;;;;;6.00;4.60;;;;;;;;5035478;28;8749;-63
2022/05/09 02:12:54;;;;;;;;;4.20;4.20;;;;;;;;5036061;28;8758;-63
2022/05/09 02:15:21;;;;;;;;;7.60;6.40;;;;;;;;5017858;28;8734;-63
2022/05/09 02:17:48;;;;;;;;;8.60;8.00;;;;;;;;5035853;28;8800;-63
2022/05/09 02:20:14;;;;;;;;;6.60;6.00;;;;;;;;5017942;28;8888;-64
2022/05/09 02:22:41;;;;;;;;;7.00;7.00;;;;;;;;5035617;28;8745;-65
2022/05/09 02:25:26;;;;;;;;;6.00;5.20;;;;;;;;5020742;28;8880;-64
2022/05/09 02:27:53;;;;;;;;;7.20;7.20;;;;;;;;5021563;28;8778;-65
2022/05/09 02:30:20;;;;;;;;;10.60;8.80;;;;;;;;5020868;28;8899;-62
2022/05/09 02:32:47;;;;;;;;;8.00;6.80;;;;;;;;5039725;28;8757;-62
2022/05/09 02:35:14;;;;;;;;;5.60;5.00;;;;;;;;5039437;28;8800;-62
2022/05/09 02:37:41;;;;;;;;;8.40;8.20;;;;;;;;5039936;28;8738;-63
2022/05/09 02:40:08;;;;;;;;;10.20;7.20;;;;;;;;5022199;28;9462;-63
2022/05/09 02:42:35;;;;;;;;;12.40;8.80;;;;;;;;5039809;28;9437;-63
2022/05/09 02:45:03;;;;;;;;;7.40;7.00;;;;;;;;5018200;28;8766;-62
2022/05/09 02:47:30;;;;;;;;;8.00;8.00;;;;;;;;5017362;28;8755;-62
2022/05/09 02:49:56;;;;;;;;;6.00;5.60;;;;;;;;5018724;28;8944;-63
2022/05/09 02:52:23;;;;;;;;;8.80;8.80;;;;;;;;5020484;28;8810;-65
2022/05/09 02:54:52;;;;;;;;;9.40;8.60;;;;;;;;5008890;28;8749;-64
2022/05/09 02:57:19;;;;;;;;;9.80;8.20;;;;;;;;4999912;28;8753;-64
2022/05/09 02:59:46;;;;;;;;;9.80;7.80;;;;;;;;5000133;28;8807;-62
2022/05/09 03:02:12;;;;;;;;;7.00;7.00;;;;;;;;4999849;28;8781;-62
2022/05/09 03:04:39;;;;;;;;;7.20;7.00;;;;;;;;4999740;28;8836;-63
2022/05/09 03:07:07;;;;;;;;;5.60;4.20;;;;;;;;5000527;28;8769;-62
2022/05/09 03:09:33;;;;;;;;;7.80;4.80;;;;;;;;5008499;28;8758;-62
2022/05/09 03:12:00;;;;;;;;;9.20;7.40;;;;;;;;5019286;28;9420;-62
2022/05/09 03:14:27;;;;;;;;;9.00;9.00;;;;;;;;5017853;28;8751;-63
2022/05/09 03:16:54;;;;;;;;;8.80;8.00;;;;;;;;5018298;28;8779;-65
2022/05/09 03:19:21;;;;;;;;;7.40;7.40;;;;;;;;5020107;28;8791;-65
2022/05/09 03:21:48;;;;;;;;;8.40;8.40;;;;;;;;5019178;28;8737;-72
2022/05/09 03:24:15;;;;;;;;;9.00;9.00;;;;;;;;5012521;28;9477;-68
2022/05/09 03:26:41;;;;;;;;;8.60;7.20;;;;;;;;4999401;28;8745;-64
2022/05/09 03:29:08;;;;;;;;;6.80;6.00;;;;;;;;5015024;28;8876;-66
2022/05/09 03:31:35;;;;;;;;;7.00;6.60;;;;;;;;5013516;28;9264;-64
2022/05/09 03:34:02;;;;;;;;;7.80;7.80;;;;;;;;4999427;28;8766;-62
2022/05/09 03:36:29;;;;;;;;;7.80;7.00;;;;;;;;4998401;28;8829;-64
2022/05/09 03:38:56;;;;;;;;;8.40;8.00;;;;;;;;5018118;28;8807;-64
2022/05/09 03:41:23;;;;;;;;;11.20;9.60;;;;;;;;5018706;28;8818;-64
2022/05/09 03:43:49;;;;;;;;;7.20;5.00;;;;;;;;5020171;28;8825;-64
2022/05/09 03:46:16;;;;;;;;;7.40;6.40;;;;;;;;5039776;28;8821;-64
2022/05/09 03:48:43;;;;;;;;;7.20;7.20;;;;;;;;5020955;28;8966;-63
2022/05/09 03:51:10;;;;;;;;;6.80;5.40;;;;;;;;5038565;28;8777;-63
2022/05/09 03:53:36;;;;;;;;;8.80;8.20;;;;;;;;5020973;28;8798;-64
2022/05/09 03:56:03;;;;;;;;;10.60;9.20;;;;;;;;5038493;28;8832;-62
2022/05/09 03:58:30;;;;;;;;;7.40;7.40;;;;;;;;5038626;28;8745;-63
2022/05/09 04:00:56;;;;;;;;;7.00;7.00;;;;;;;;5026976;28;8805;-63
2022/05/09 04:03:23;;;;;;;;;8.00;7.00;;;;;;;;5038304;28;8812;-62
2022/05/09 04:05:50;;;;;;;;;9.00;8.80;;;;;;;;5037102;28;8757;-63
2022/05/09 04:08:17;;;;;;;;;7.20;6.20;;;;;;;;5038491;28;8777;-64
2022/05/09 04:10:45;;;;;;;;;8.20;7.20;;;;;;;;5028123;28;8765;-64
2022/05/09 04:13:11;;;;;;;;;9.00;9.00;;;;;;;;5021447;28;8864;-64
2022/05/09 04:18:28;;;;;;;;;10.00;9.00;;;;;;;;5023030;28;8864;-65
2022/05/09 04:20:55;;;;;;;;;9.40;8.00;;;;;;;;5038131;28;8903;-65
2022/05/09 04:23:22;;;;;;;;;5.80;5.80;;;;;;;;5036898;28;8785;-64
2022/05/09 04:25:49;;;;;;;;;9.60;8.40;;;;;;;;5036702;28;9325;-65
2022/05/09 04:28:17;;;;;;;;;9.00;9.00;;;;;;;;5019942;28;8880;-65
2022/05/09 04:30:44;;;;;;;;;9.00;9.00;;;;;;;;5036284;28;8741;-66
2022/05/09 04:33:11;;;;;;;;;9.20;9.00;;;;;;;;5005620;28;8743;-65
2022/05/09 04:35:42;;;;;;;;;8.80;8.80;;;;;;;;5017767;28;8830;-66
2022/05/09 04:38:13;;;;;;;;;9.60;9.60;;;;;;;;5017898;28;8817;-66
2022/05/09 04:40:41;;;;;;;;;9.20;8.40;;;;;;;;4998647;28;8859;-65
2022/05/09 04:43:07;;;;;;;;;9.00;8.00;;;;;;;;4981746;28;8757;-65
2022/05/09 04:45:34;;;;;;;;;11.00;11.00;;;;;;;;4997413;28;8773;-65
2022/05/09 04:48:01;;;;;;;;;10.80;10.80;;;;;;;;4980424;28;9466;-65
2022/05/09 04:50:28;;;;;;;;;8.00;8.00;;;;;;;;4996426;28;8757;-65
2022/05/09 04:52:55;;;;;;;;;9.20;9.20;;;;;;;;4998073;28;8776;-66
2022/05/09 04:55:22;;;;;;;;;8.40;8.40;;;;;;;;5012285;28;8739;-66
2022/05/09 04:57:49;;;;;;;;;8.20;8.00;;;;;;;;5017321;28;8739;-66
2022/05/09 05:00:17;;;;;;;;;10.00;8.80;;;;;;;;5019379;28;8765;-66
2022/05/09 05:02:43;;;;;;;;;13.40;10.40;;;;;;;;5026526;28;8771;-66
2022/05/09 05:05:10;;;;;;;;;9.20;9.20;;;;;;;;5017262;28;8783;-66
2022/05/09 05:07:37;;;;;;;;;11.00;9.20;;;;;;;;5032366;28;8905;-66
2022/05/09 05:10:04;;;;;;;;;12.20;11.20;;;;;;;;5006573;28;9560;-66
2022/05/09 05:12:31;;;;;;;;;11.20;11.20;;;;;;;;5000044;28;8759;-65
2022/05/09 05:15:00;;;;;;;;;13.80;12.20;;;;;;;;4997785;28;8773;-65
2022/05/09 05:17:27;;;;;;;;;8.00;6.80;;;;;;;;5011801;28;8788;-65
2022/05/09 05:19:53;;;;;;;;;10.60;10.60;;;;;;;;4997131;28;8785;-66
2022/05/09 05:22:20;;;;;;;;;10.60;10.00;;;;;;;;4997469;28;9434;-65
2022/05/09 05:24:51;;;;;;;;;13.20;11.60;;;;;;;;5013720;28;8737;-66
2022/05/09 05:27:19;;;;;;;;;8.80;8.80;;;;;;;;5018698;28;8765;-64
2022/05/09 05:29:45;;;;;;;;;12.20;10.20;;;;;;;;5036807;28;8753;-66
2022/05/09 05:32:16;;;;;;;;;10.00;10.00;;;;;;;;5018679;28;8734;-65
2022/05/09 05:34:43;;;;;;;;;10.40;8.20;;;;;;;;5036161;28;8804;-65
2022/05/09 05:37:10;;;;;;;;;13.20;11.80;;;;;;;;5035911;28;9417;-65
2022/05/09 05:39:37;;;;;;;;;7.60;6.20;;;;;;;;5018239;28;8756;-66
2022/05/09 05:42:05;;;;;;;;;11.80;10.60;;;;;;;;5021837;28;8743;-65
2022/05/09 05:44:32;;;;;;;;;11.80;10.80;;;;;;;;5015891;28;8817;-65
2022/05/09 05:46:58;;;;;;;;;9.80;9.80;;;;;;;;5016891;28;8747;-65
2022/05/09 05:49:25;;;;;;;;;12.60;10.00;;;;;;;;5014944;28;8897;-64
2022/05/09 05:51:52;;;;;;;;;12.80;11.40;;;;;;;;5015930;28;8755;-65
2022/05/09 05:54:18;;;;;;;;;12.40;9.60;;;;;;;;5009092;28;8808;-65
2022/05/09 05:56:45;;;;;;;;;10.40;10.40;;;;;;;;4979232;28;9024;-65
2022/05/09 05:59:12;;;;;;;;;11.80;11.60;;;;;;;;4996273;28;8951;-65
2022/05/09 06:01:39;;;;;;;;;10.00;10.00;;;;;;;;4987412;28;8774;-65
2022/05/09 06:04:05;;;;;;;;;10.40;10.40;;;;;;;;5010362;28;8780;-66
2022/05/09 06:06:32;;;;;;;;;13.00;11.20;;;;;;;;4998777;28;8775;-65
2022/05/09 06:08:59;;;;;;;;;11.80;11.60;;;;;;;;5018010;28;8777;-65
2022/05/09 06:11:26;;;;;;;;;10.60;10.20;;;;;;;;5035739;28;8772;-65
2022/05/09 06:13:52;;;;;;;;;13.60;13.00;;;;;;;;5035984;28;8895;-66
2022/05/09 06:16:19;;;;;;;;;12.60;12.40;;;;;;;;5035814;28;8757;-65
2022/05/09 06:18:51;;;;;;;;;12.60;11.00;;;;;;;;5033420;28;8867;-66
2022/05/09 06:21:19;;;;;;;;;10.60;9.80;;;;;;;;5017564;28;8858;-64
2022/05/09 06:23:46;;;;;;;;;14.40;11.80;;;;;;;;5011910;28;8775;-66
2022/05/09 06:26:14;;;;;;;;;11.40;10.80;;;;;;;;4996315;28;8797;-66
2022/05/09 06:28:41;;;;;;;;;10.20;10.20;;;;;;;;4995236;28;8741;-66
2022/05/09 06:31:08;;;;;;;;;10.20;10.20;;;;;;;;4997383;28;8776;-66
2022/05/09 06:33:35;;;;;;;;;10.00;10.00;;;;;;;;4995893;28;8769;-66
2022/05/09 06:36:02;;;;;;;;;12.20;12.20;;;;;;;;4996173;28;8794;-66
2022/05/09 06:38:29;;;;;;;;;12.40;10.80;;;;;;;;4996120;28;8839;-66
2022/05/09 06:40:56;;;;;;;;;12.60;12.60;;;;;;;;5015763;28;8779;-65
2022/05/09 06:43:23;;;;;;;;;9.80;9.80;;;;;;;;5016501;28;8909;-65
2022/05/09 06:45:50;;;;;;;;;11.80;11.80;;;;;;;;5030092;28;8816;-65
2022/05/09 06:48:17;;;;;;;;;8.00;6.20;;;;;;;;5020361;28;8762;-64
2022/05/09 06:50:44;;;;;;;;;10.60;8.40;;;;;;;;5014662;28;8763;-66
2022/05/09 06:53:14;;;;;;;;;10.40;8.40;;;;;;;;5016162;28;8767;-66
2022/05/09 06:55:41;;;;;;;;;11.80;10.20;;;;;;;;4997556;28;9125;-65
2022/05/09 06:58:09;;;;;;;;;12.20;9.40;;;;;;;;4996546;28;8856;-64
2022/05/09 07:00:35;;;;;;;;;12.40;9.80;;;;;;;;4995894;28;8765;-64
2022/05/09 07:03:02;;;;;;;;;7.40;6.60;;;;;;;;4994836;28;8772;-66
2022/05/09 07:05:29;;;;;;;;;10.80;10.80;;;;;;;;4995730;28;9513;-67
2022/05/09 07:07:56;;;;;;;;;12.00;10.80;;;;;;;;4995936;28;9448;-63
2022/05/09 07:10:23;;;;;;;;;10.60;10.60;;;;;;;;4994215;28;8740;-61
2022/05/09 07:12:51;;;;;;;;;11.20;9.40;;;;;;;;5028249;28;8741;-64
2022/05/09 07:15:18;;;;;;;;;10.00;9.00;;;;;;;;5006250;28;8763;-63
2022/05/09 07:17:45;;;;;;;;;9.80;8.60;;;;;;;;5018370;28;8766;-63
2022/05/09 07:20:12;;;;;;;;;11.00;10.00;;;;;;;;5018159;28;8941;-64
2022/05/09 07:22:39;;;;;;;;;9.20;8.40;;;;;;;;5034591;28;8881;-64
2022/05/09 07:25:08;;;;;;;;;10.20;8.20;;;;;;;;5006652;28;8730;-62
2022/05/09 07:27:35;;;;;;;;;11.60;10.20;;;;;;;;4982267;28;8737;-63
2022/05/09 07:30:01;;;;;;;;;11.00;9.60;;;;;;;;4999511;28;8765;-63
2022/05/09 07:32:28;;;;;;;;;11.00;9.20;;;;;;;;4999684;28;9363;-64
2022/05/09 07:34:55;;;;;;;;;9.60;9.60;;;;;;;;4998337;28;8764;-64
2022/05/09 07:37:22;;;;;;;;;6.00;6.00;;;;;;;;4999857;28;8764;-62
2022/05/09 07:39:49;;;;;;;;;7.00;7.00;;;;;;;;5010601;28;8723;-64
2022/05/09 07:42:16;;;;;;;;;9.60;9.00;;;;;;;;5019398;28;8731;-65
2022/05/09 07:44:42;;;;;;;;;9.20;9.20;;;;;;;;5018732;28;8755;-64
2022/05/09 07:47:10;;;;;;;;;9.00;9.00;;;;;;;;5017849;28;8715;-64
2022/05/09 07:49:37;;;;;;;;;8.60;7.60;;;;;;;;5017595;28;8754;-65
2022/05/09 07:52:05;;;;;;;;;7.40;7.40;;;;;;;;5019846;28;8761;-62
2022/05/09 07:54:35;;;;;;;;;11.20;10.40;;;;;;;;5010080;28;9438;-61
2022/05/09 07:57:02;;;;;;;;;9.40;8.00;;;;;;;;4999318;28;8803;-61
2022/05/09 07:59:29;;;;;;;;;10.60;10.60;;;;;;;;4981923;28;8789;-61
2022/05/09 08:01:56;;;;;;;;;10.40;10.00;;;;;;;;4999045;28;8761;-61
2022/05/09 08:04:23;;;;;;;;;9.20;9.20;;;;;;;;4999751;28;8867;-62
2022/05/09 08:06:50;;;;;;;;;12.00;11.80;;;;;;;;5017025;28;9462;-62
2022/05/09 08:09:16;;;;;;;;;11.60;10.00;;;;;;;;5025541;28;8872;-62
2022/05/09 08:11:44;;;;;;;;;10.00;10.00;;;;;;;;5039048;28;8850;-64
2022/05/09 08:14:11;;;;;;;;;9.20;7.80;;;;;;;;5038459;28;8872;-63
2022/05/09 08:16:38;;;;;;;;;8.60;8.60;;;;;;;;5037979;28;8780;-62
2022/05/09 08:19:05;;;;;;;;;11.40;10.20;;;;;;;;5039135;28;8758;-63
2022/05/09 08:21:33;;;;;;;;;9.20;9.20;;;;;;;;5020616;28;9431;-67
2022/05/09 08:24:02;;;;;;;;;7.20;7.20;;;;;;;;5020667;28;8943;-63
2022/05/09 08:26:28;;;;;;;;;9.00;9.00;;;;;;;;5037931;28;8926;-64
2022/05/09 08:28:56;;;;;;;;;10.40;9.00;;;;;;;;5038390;28;8808;-65
2022/05/09 08:31:23;;;;;;;;;9.40;7.60;;;;;;;;5038654;28;8848;-65
2022/05/09 08:33:52;;;;;;;;;5.40;5.40;;;;;;;;5038176;28;9467;-69
2022/05/09 08:39:05;;;;;;;;;8.20;7.00;;;;;;;;5038379;28;8909;-70
2022/05/09 08:41:37;;;;;;;;;8.80;6.20;;;;;;;;5037345;28;8780;-65
2022/05/09 08:44:22;;;;;;;;;8.00;8.00;;;;;;;;5039054;28;8874;-63
2022/05/09 08:47:06;;;;;;;;;11.40;10.60;;;;;;;;5038804;28;8777;-65
2022/05/09 08:49:42;;;;;;;;;11.80;11.00;;;;;;;;5037972;28;8882;-63
2022/05/09 08:52:15;;;;;;;;;7.00;7.00;;;;;;;;5038727;28;8725;-64
2022/05/09 08:54:42;;;;;;;;;10.60;9.00;;;;;;;;5038021;28;8773;-64
2022/05/09 08:57:10;;;;;;;;;11.00;9.00;;;;;;;;5019962;28;8762;-64
2022/05/09 08:59:51;;;;;;;;;9.20;8.80;;;;;;;;5019788;28;9458;-64
2022/05/09 09:02:22;;;;;;;;;10.20;10.20;;;;;;;;5038119;28;8797;-63
2022/05/09 09:04:56;;;;;;;;;10.60;9.80;;;;;;;;5038197;28;8761;-63
2022/05/09 09:07:36;;;;;;;;;8.20;7.00;;;;;;;;5038650;28;8757;-64
2022/05/09 09:10:03;;;;;;;;;8.00;7.20;;;;;;;;5038494;28;8801;-63
2022/05/09 09:12:29;;;;;;;;;7.20;7.20;;;;;;;;5037226;28;8880;-63
2022/05/09 09:15:25;;;;;;;;;11.80;10.40;;;;;;;;5037332;28;8752;-63
2022/05/09 09:17:52;;;;;;;;;12.00;11.00;;;;;;;;5021282;28;8769;-63
2022/05/09 09:20:45;;;;;;;;;10.00;10.00;;;;;;;;5036992;28;8861;-61
2022/05/09 09:23:17;;;;;;;;;10.40;10.40;;;;;;;;5034248;28;9477;-63
2022/05/09 09:25:53;;;;;;;;;9.80;9.00;;;;;;;;5036045;28;8797;-63
2022/05/09 09:28:24;;;;;;;;;11.00;10.40;;;;;;;;5038167;28;8765;-63
2022/05/09 09:30:51;;;;;;;;;8.40;8.40;;;;;;;;5012453;28;8758;-63
2022/05/09 09:33:18;;;;;;;;;11.40;10.40;;;;;;;;5031472;28;8770;-59
2022/05/09 09:36:11;;;;;;;;;10.60;10.40;;;;;;;;5056386;28;8864;-63
2022/05/09 09:38:53;;;;;;;;;14.80;10.20;;;;;;;;5052739;28;8778;-63
2022/05/09 09:41:30;;;;;;;;;13.60;13.60;;;;;;;;5029389;28;8969;-62
2022/05/09 09:44:13;;;;;;;;;14.40;11.60;;;;;;;;5032484;28;9281;-63
2022/05/09 09:46:58;;;;;;;;;12.00;11.00;;;;;;;;5035851;28;9885;-63
2022/05/09 09:49:25;;;;;;;;;14.00;13.60;;;;;;;;5017676;28;8844;-61
2022/05/09 09:51:52;;;;;;;;;12.40;12.40;;;;;;;;5019196;28;8757;-64
2022/05/09 09:54:20;;;;;;;;;13.20;12.00;;;;;;;;5036698;28;8793;-62
2022/05/09 09:56:47;;;;;;;;;14.40;13.00;;;;;;;;5019386;28;8792;-63
2022/05/09 09:59:24;;;;;;;;;13.40;13.40;;;;;;;;5036806;28;8769;-64
2022/05/09 10:02:16;;;;;;;;;11.40;11.20;;;;;;;;5036916;28;8823;-64
2022/05/09 10:04:43;;;;;;;;;15.20;12.20;;;;;;;;5037087;28;8765;-64
2022/05/09 10:07:26;;;;;;;;;15.60;13.80;;;;;;;;5037201;28;8821;-64
2022/05/09 10:10:11;;;;;;;;;12.40;12.40;;;;;;;;5038172;28;9210;-64
2022/05/09 10:12:41;;;;;;;;;14.80;13.00;;;;;;;;5017628;28;8775;-64
2022/05/09 10:15:28;;;;;;;;;18.20;15.00;;;;;;;;5016338;28;8838;-64
2022/05/09 10:17:55;;;;;;;;;13.00;13.00;;;;;;;;5007619;28;8755;-64
2022/05/09 10:20:27;;;;;;;;;17.00;15.80;;;;;;;;5022430;28;8794;-63
2022/05/09 10:25:39;;;;;;;;;15.00;14.00;;;;;;;;5012216;28;8789;-63
2022/05/09 10:28:06;;;;;;;;;15.25;15.25;;;;;;;;4981093;28;8781;-63
2022/05/09 10:30:33;;;;;;;;;18.00;14.00;;;;;;;;4997215;28;8797;-63
2022/05/09 10:33:03;;;;;;;;;23.60;17.40;;;;;;;;4980065;28;8819;-64
2022/05/09 10:35:32;;;;;;;;;19.20;14.20;;;;;;;;4996956;28;8812;-63
2022/05/09 10:38:05;;;;;;;;;19.75;16.00;;;;;;;;4979804;28;8773;-63
2022/05/09 10:40:36;;;;;;;;;14.60;12.80;;;;;;;;5013332;28;9633;-63
2022/05/09 10:43:05;;;;;;;;;14.00;13.60;;;;;;;;5032503;28;8755;-63
2022/05/09 10:45:33;;;;;;;;;14.40;12.40;;;;;;;;5017386;28;8837;-63
2022/05/09 10:48:02;;;;;;;;;13.60;11.60;;;;;;;;5020448;28;8783;-64
2022/05/09 10:50:39;;;;;;;;;13.00;13.00;;;;;;;;5019197;28;8746;-63
2022/05/09 10:53:24;;;;;;;;;11.40;10.40;;;;;;;;5020455;28;8767;-63
2022/05/09 10:55:53;;;;;;;;;14.40;12.20;;;;;;;;5040354;28;8796;-63
2022/05/09 10:58:23;;;;;;;;;13.20;11.40;;;;;;;;5003360;28;8776;-63
2022/05/09 11:00:54;;;;;;;;;11.20;11.20;;;;;;;;5059923;28;8892;-63
2022/05/09 11:03:26;;;;;;;;;14.40;12.40;;;;;;;;5059795;28;8782;-63
2022/05/09 11:06:00;;;;;;;;;10.60;10.60;;;;;;;;5042834;28;8801;-64
2022/05/09 11:08:30;;;;;;;;;16.00;16.00;;;;;;;;5042558;28;8789;-63
2022/05/09 11:11:15;;;;;;;;;13.80;12.20;;;;;;;;5000631;28;8761;-63
2022/05/09 11:13:42;;;;;;;;;14.40;12.80;;;;;;;;5020242;28;8828;-63
2022/05/09 11:16:17;;;;;;;;;15.00;12.40;;;;;;;;5019355;28;8732;-63
2022/05/09 11:18:50;;;;;;;;;17.00;12.40;;;;;;;;5020177;28;8877;-64
2022/05/09 11:21:33;;;;;;;;;9.80;9.80;;;;;;;;5000557;28;8808;-61
2022/05/09 11:24:20;;;;;;;;;15.60;14.40;;;;;;;;5004665;28;8802;-63
2022/05/09 11:27:05;;;;;;;;;14.80;13.40;;;;;;;;5020234;28;9412;-63
2022/05/09 11:29:35;;;;;;;;;16.00;14.40;;;;;;;;5018478;28;9485;-63
2022/05/09 11:32:16;;;;;;;;;11.80;11.20;;;;;;;;5014636;28;8765;-63
2022/05/09 11:34:50;;;;;;;;;16.80;16.80;;;;;;;;5019314;28;8771;-63
2022/05/09 11:37:19;;;;;;;;;16.80;15.60;;;;;;;;5020767;28;8806;-63
2022/05/09 11:40:00;;;;;;;;;17.20;15.00;;;;;;;;5020093;28;8888;-63
2022/05/09 11:45:27;;;;;;;;;17.20;16.20;;;;;;;;5018516;28;8984;-62
2022/05/09 11:48:12;;;;;;;;;15.40;15.40;;;;;;;;5018646;28;8796;-63
2022/05/09 11:50:42;;;;;;;;;13.00;10.80;;;;;;;;5019985;28;8829;-63
2022/05/09 11:53:09;;;;;;;;;14.40;14.40;;;;;;;;5015775;28;8771;-64
2022/05/09 11:55:36;;;;;;;;;16.20;15.20;;;;;;;;5016737;28;8753;-63
2022/05/09 11:58:03;;;;;;;;;14.20;14.20;;;;;;;;4982361;28;9583;-64
2022/05/09 12:00:44;;;;;;;;;16.20;16.20;;;;;;;;4999613;28;8882;-63
2022/05/09 12:03:11;;;;;;;;;15.40;15.20;;;;;;;;5019493;28;8758;-64
2022/05/09 12:05:38;;;;;;;;;13.80;13.80;;;;;;;;5018799;28;8795;-64
2022/05/09 12:08:05;;;;;;;;;15.00;15.00;;;;;;;;5019076;28;8768;-63
2022/05/09 12:10:32;;;;;;;;;16.80;13.40;;;;;;;;5035444;28;9422;-64
2022/05/09 12:13:08;;;;;;;;;15.20;14.60;;;;;;;;5039248;28;8761;-63
2022/05/09 12:15:35;;;;;;;;;19.20;15.80;;;;;;;;5038599;28;8823;-63
2022/05/09 12:18:08;;;;;;;;;15.60;13.20;;;;;;;;5038791;28;8761;-64
2022/05/09 12:20:37;;;;;;;;;16.80;14.00;;;;;;;;5038690;28;8854;-64
2022/05/09 12:23:09;;;;;;;;;16.00;15.40;;;;;;;;5038551;28;8773;-64
2022/05/09 12:25:36;;;;;;;;;18.60;15.60;;;;;;;;5038382;28;8766;-63
2022/05/09 12:28:06;;;;;;;;;15.80;15.80;;;;;;;;5039596;28;8742;-63
2022/05/09 12:30:36;;;;;;;;;13.00;13.00;;;;;;;;5021204;28;8754;-63
2022/05/09 12:33:13;;;;;;;;;18.80;13.80;;;;;;;;5038566;28;8784;-64
2022/05/09 12:35:39;;;;;;;;;13.20;13.20;;;;;;;;5020853;28;8836;-63
2022/05/09 12:38:06;;;;;;;;;16.80;16.80;;;;;;;;5020989;28;8789;-64
2022/05/09 12:40:33;;;;;;;;;16.60;16.60;;;;;;;;5037782;28;8832;-63
2022/05/09 12:43:00;;;;;;;;;20.80;16.00;;;;;;;;5038694;28;8769;-64
2022/05/09 12:45:27;;;;;;;;;15.00;15.00;;;;;;;;5038194;28;8785;-63
2022/05/09 12:47:54;;;;;;;;;18.00;16.20;;;;;;;;5038288;28;8977;-63
2022/05/09 12:50:31;;;;;;;;;19.60;19.20;;;;;;;;5036767;28;8773;-63
2022/05/09 12:52:59;;;;;;;;;18.40;17.60;;;;;;;;5038059;28;8788;-64
2022/05/09 12:58:32;;;;;;;;;22.00;18.25;;;;;;;;5024175;28;8753;-63
2022/05/09 13:01:17;;;;;;;;;20.75;19.00;;;;;;;;5038757;28;8809;-64
2022/05/09 13:03:45;;;;;;;;;17.75;17.75;;;;;;;;5038330;28;8773;-64
2022/05/09 13:06:12;;;;;;;;;21.00;19.00;;;;;;;;5038059;28;8782;-64
2022/05/09 13:08:39;;;;;;;;;17.80;15.40;;;;;;;;5037176;28;8816;-64
2022/05/09 13:11:14;;;;;;;;;22.00;20.00;;;;;;;;5030723;28;8786;-64
2022/05/09 13:13:40;;;;;;;;;24.25;20.50;;;;;;;;5032442;28;8774;-64
2022/05/09 13:16:07;;;;;;;;;22.75;22.75;;;;;;;;5018570;28;8766;-64
2022/05/09 13:18:35;;;;;;;;;23.00;21.50;;;;;;;;5017625;28;9467;-64
2022/05/09 13:21:05;;;;;;;;;23.00;20.75;;;;;;;;5016361;28;8790;-64
2022/05/09 13:23:37;;;;;;;;;27.75;24.75;;;;;;;;5017565;28;8767;-64
2022/05/09 13:26:05;;;;;;;;;24.75;23.50;;;;;;;;4981005;28;8812;-64
2022/05/09 13:28:32;;;;;;;;;26.00;23.50;;;;;;;;4996594;28;8811;-64
2022/05/09 13:30:59;;;;;;;;;27.00;25.00;;;;;;;;4998550;28;8765;-64
2022/05/09 13:33:30;;;;;;;;;24.50;24.50;;;;;;;;4998307;28;8811;-64
2022/05/09 13:35:59;;;;;;;;;27.00;25.75;;;;;;;;4997729;28;9054;-64
2022/05/09 13:38:36;;;;;;;;;32.25;27.50;;;;;;;;4980878;28;8866;-64
2022/05/09 13:41:12;;;;;;;;;26.25;21.50;;;;;;;;4998020;28;8799;-64
2022/05/09 13:43:48;;;;;;;;;24.50;20.00;;;;;;;;5012795;28;8765;-64
2022/05/09 13:46:17;;;;;;;;;31.75;27.50;;;;;;;;4998389;28;8911;-64
2022/05/09 13:48:44;;;;;;;;;24.50;21.50;;;;;;;;4998125;28;8785;-64
2022/05/09 13:51:11;;;;;;;;;25.25;23.25;;;;;;;;4998201;28;8895;-64
2022/05/09 13:53:38;;;;;;;;;25.75;25.50;;;;;;;;4997082;28;9553;-64
2022/05/09 13:56:13;;;;;;;;;28.50;26.25;;;;;;;;5032404;28;8783;-64
2022/05/09 13:58:40;;;;;;;;;30.50;26.25;;;;;;;;5017134;28;8751;-64
2022/05/09 14:01:07;;;;;;;;;28.00;26.00;;;;;;;;5017761;28;8806;-64
2022/05/09 14:03:38;;;;;;;;;26.50;23.50;;;;;;;;5016678;28;9439;-64
2022/05/09 14:06:13;;;;;;;;;34.50;28.25;;;;;;;;5017560;28;8797;-64
2022/05/09 14:08:40;;;;;;;;;27.50;26.50;;;;;;;;5032120;28;8873;-64
2022/05/09 14:11:08;;;;;;;;;26.25;26.25;;;;;;;;5017109;28;9668;-64
2022/05/09 14:13:49;;;;;;;;;31.75;27.75;;;;;;;;5015769;28;8759;-64
2022/05/09 14:16:25;;;;;;;;;31.00;27.00;;;;;;;;5017769;28;8743;-64
2022/05/09 14:18:58;;;;;;;;;27.75;23.00;;;;;;;;5037776;28;8749;-64
2022/05/09 14:21:25;;;;;;;;;28.75;23.00;;;;;;;;5015307;28;8774;-64
2022/05/09 14:23:59;;;;;;;;;25.75;23.75;;;;;;;;5004269;28;8892;-64
2022/05/09 14:31:59;;;;;;;;;26.25;22.25;;;;;;;;5017207;28;8752;-64
2022/05/09 14:34:26;;;;;;;;;20.25;19.25;;;;;;;;4999459;28;8775;-64
2022/05/09 14:37:11;;;;;;;;;25.25;24.25;;;;;;;;5017514;28;8792;-64
2022/05/09 14:40:04;;;;;;;;;23.75;23.00;;;;;;;;5025789;28;8809;-64
2022/05/09 14:42:34;;;;;;;;;23.50;22.25;;;;;;;;5006283;28;8813;-64
2022/05/09 14:45:03;;;;;;;;;24.75;22.00;;;;;;;;5036256;28;8784;-63
2022/05/09 14:47:31;;;;;;;;;28.00;27.75;;;;;;;;5036289;28;8749;-64
2022/05/09 14:50:13;;;;;;;;;29.50;26.50;;;;;;;;5036418;28;9064;-64
2022/05/09 14:52:41;;;;;;;;;25.50;23.25;;;;;;;;5036818;28;8729;-64
2022/05/09 14:57:56;;;;;;;;;24.50;23.50;;;;;;;;5036996;28;8745;-64
2022/05/09 15:00:26;;;;;;;;;29.50;25.25;;;;;;;;5018848;28;8821;-63
2022/05/09 15:02:57;;;;;;;;;24.00;23.00;;;;;;;;5036210;28;8769;-64
2022/05/09 15:05:24;;;;;;;;;26.60;24.20;;;;;;;;5036013;28;8828;-63
2022/05/09 15:07:50;;;;;;;;;21.40;21.40;;;;;;;;5018987;28;8742;-64
2022/05/09 15:10:17;;;;;;;;;24.40;22.20;;;;;;;;5002656;28;8782;-63
2022/05/09 15:12:44;;;;;;;;;25.75;23.75;;;;;;;;5036260;28;8757;-64
2022/05/09 15:15:11;;;;;;;;;25.00;24.75;;;;;;;;5036322;28;8754;-64
2022/05/09 15:17:38;;;;;;;;;24.00;22.25;;;;;;;;5035842;28;8793;-64
2022/05/09 15:20:04;;;;;;;;;23.50;22.25;;;;;;;;5018376;28;9410;-64